Time;durP1;ratioP1;P1;durP2;ratioP2;P2;SDS_P1;SDS_P2;PMS_P1;PMS_P2;Temp;Humidity;BMP_temperature;BMP_pressure;BME280_temperature;BME280_humidity;BME280_pressure;Samples;Min_cycle;Max_cycle;Signal;HPM_P1;HPM_P2
2021/10/26 00:02:22;;;;;;;6.80;1.63;;;8.60;90.30;;;;;;5070129;28;20051;-79
2021/10/26 00:04:50;;;;;;;6.20;1.80;;;8.60;90.40;;;;;;5072285;28;20052;-79
2021/10/26 00:07:19;;;;;;;6.57;1.85;;;8.60;90.60;;;;;;5071398;28;20107;-79
2021/10/26 00:09:46;;;;;;;8.82;2.10;;;8.50;90.70;;;;;;5075039;28;20060;-79
2021/10/26 00:12:14;;;;;;;7.00;1.70;;;8.50;90.80;;;;;;5071440;28;20040;-79
2021/10/26 00:14:42;;;;;;;9.75;1.92;;;8.50;90.90;;;;;;5071286;28;20306;-79
2021/10/26 00:17:10;;;;;;;8.70;1.45;;;8.50;90.90;;;;;;5070197;28;20055;-79
2021/10/26 00:19:41;;;;;;;10.35;1.90;;;8.50;90.90;;;;;;5085326;28;20059;-80
2021/10/26 00:22:09;;;;;;;8.80;1.80;;;8.50;90.90;;;;;;5070350;28;20049;-81
2021/10/26 00:24:37;;;;;;;6.13;1.63;;;8.50;90.90;;;;;;5070746;28;20059;-78
2021/10/26 00:27:04;;;;;;;9.32;1.77;;;8.50;91.00;;;;;;5070088;28;20120;-79
2021/10/26 00:29:32;;;;;;;8.55;1.50;;;8.50;91.00;;;;;;5068821;28;20053;-79
2021/10/26 00:32:01;;;;;;;12.50;1.90;;;8.50;91.00;;;;;;5070448;28;20049;-79
2021/10/26 00:34:31;;;;;;;11.63;1.73;;;8.50;91.00;;;;;;5071192;28;20059;-80
2021/10/26 00:37:00;;;;;;;10.40;1.73;;;8.50;91.00;;;;;;5069767;28;20064;-79
2021/10/26 00:39:29;;;;;;;8.38;2.05;;;8.50;91.00;;;;;;5069301;28;20417;-79
2021/10/26 00:41:58;;;;;;;7.10;1.80;;;8.50;91.00;;;;;;5060214;28;20040;-80
2021/10/26 00:44:29;;;;;;;5.13;1.60;;;8.40;91.00;;;;;;5075427;28;20049;-79
2021/10/26 00:47:01;;;;;;;12.77;2.10;;;8.40;91.10;;;;;;5091145;28;20044;-79
2021/10/26 00:49:29;;;;;;;9.13;1.92;;;8.40;91.10;;;;;;5071318;28;20055;-80
2021/10/26 00:51:57;;;;;;;10.38;1.55;;;8.40;91.20;;;;;;5054675;28;20051;-79
2021/10/26 00:54:26;;;;;;;9.73;1.60;;;8.40;91.20;;;;;;5093066;28;20070;-80
2021/10/26 00:56:59;;;;;;;7.93;1.40;;;8.40;91.30;;;;;;5089888;28;20058;-80
2021/10/26 00:59:27;;;;;;;10.98;1.70;;;8.40;91.30;;;;;;5078157;28;20040;-79
2021/10/26 01:01:58;;;;;;;17.20;1.88;;;8.40;91.20;;;;;;5094758;28;20044;-80
2021/10/26 01:04:28;;;;;;;9.48;2.00;;;8.40;91.10;;;;;;5111547;28;20058;-80
2021/10/26 01:06:57;;;;;;;5.55;1.45;;;8.40;91.10;;;;;;5078762;28;20036;-80
2021/10/26 01:09:28;;;;;;;10.48;1.98;;;8.40;91.20;;;;;;5100851;28;20044;-80
2021/10/26 01:11:57;;;;;;;9.10;1.77;;;8.40;91.30;;;;;;5092823;28;20043;-80
2021/10/26 01:14:26;;;;;;;6.13;1.70;;;8.30;91.30;;;;;;5107798;28;20055;-80
2021/10/26 01:17:06;;;;;;;10.27;1.60;;;8.30;91.30;;;;;;5093735;28;20040;-80
2021/10/26 01:19:48;;;;;;;6.22;1.63;;;8.30;91.30;;;;;;5106887;28;20407;-80
2021/10/26 01:22:20;;;;;;;12.15;1.75;;;8.30;91.30;;;;;;5109611;28;20070;-80
2021/10/26 01:24:48;;;;;;;14.52;1.73;;;8.40;91.30;;;;;;5112686;28;20050;-80
2021/10/26 01:27:16;;;;;;;10.15;2.20;;;8.40;91.30;;;;;;5076333;28;20051;-80
2021/10/26 01:29:45;;;;;;;11.90;2.17;;;8.50;91.30;;;;;;5073116;28;20052;-80
2021/10/26 01:32:16;;;;;;;10.35;2.17;;;8.50;91.20;;;;;;5093069;28;20513;-80
2021/10/26 01:34:47;;;;;;;12.48;2.17;;;8.50;91.20;;;;;;5089719;28;20052;-80
2021/10/26 01:37:15;;;;;;;10.27;1.67;;;8.50;91.10;;;;;;5096293;28;20130;-80
2021/10/26 01:39:45;;;;;;;12.02;2.05;;;8.60;91.10;;;;;;5065551;28;20043;-80
2021/10/26 01:42:17;;;;;;;11.20;2.10;;;8.60;91.10;;;;;;5070780;28;20351;-80
2021/10/26 01:44:45;;;;;;;11.43;1.58;;;8.50;91.00;;;;;;5073419;28;20063;-80
2021/10/26 01:47:21;;;;;;;6.53;1.80;;;8.50;91.10;;;;;;5091441;28;20057;-80
2021/10/26 01:49:52;;;;;;;10.95;2.08;;;8.50;91.10;;;;;;5070708;28;20049;-80
2021/10/26 01:52:24;;;;;;;9.00;1.85;;;8.50;91.20;;;;;;5074560;28;20055;-80
2021/10/26 01:54:54;;;;;;;9.05;1.92;;;8.50;91.20;;;;;;5080811;28;20420;-80
2021/10/26 01:57:23;;;;;;;6.20;1.88;;;8.50;91.20;;;;;;5074168;28;20401;-80
2021/10/26 02:00:18;;;;;;;10.50;1.70;;;8.50;91.20;;;;;;5085195;28;20067;-80
2021/10/26 02:02:49;;;;;;;12.18;2.03;;;8.50;91.20;;;;;;5095593;28;20055;-80
2021/10/26 02:05:18;;;;;;;12.50;1.90;;;8.50;91.20;;;;;;5055054;28;20048;-80
2021/10/26 02:07:47;;;;;;;8.02;1.55;;;8.50;91.20;;;;;;5067766;28;20041;-80
2021/10/26 02:10:16;;;;;;;12.95;2.30;;;8.50;91.30;;;;;;5082797;28;20047;-80
2021/10/26 02:12:46;;;;;;;7.80;1.70;;;8.40;91.30;;;;;;5053282;28;20062;-79
2021/10/26 02:15:14;;;;;;;10.70;1.65;;;8.40;91.40;;;;;;5068039;28;20037;-79
2021/10/26 02:17:42;;;;;;;11.23;2.05;;;8.50;91.40;;;;;;5067976;28;20048;-80
2021/10/26 02:20:11;;;;;;;9.90;2.17;;;8.40;91.40;;;;;;5071777;28;20060;-79
2021/10/26 02:22:39;;;;;;;9.00;1.70;;;8.50;91.40;;;;;;5097806;28;20055;-80
2021/10/26 02:25:08;;;;;;;12.60;1.95;;;8.50;91.40;;;;;;5042335;28;20044;-80
2021/10/26 02:27:38;;;;;;;11.15;2.03;;;8.50;91.40;;;;;;5068423;28;20040;-80
2021/10/26 02:30:09;;;;;;;6.63;2.00;;;8.50;91.30;;;;;;5064415;28;20419;-80
2021/10/26 02:32:37;;;;;;;8.43;1.95;;;8.50;91.30;;;;;;5056988;28;20052;-80
2021/10/26 02:35:05;;;;;;;10.77;2.00;;;8.50;91.40;;;;;;5056686;28;20043;-79
2021/10/26 02:37:33;;;;;;;13.15;2.25;;;8.50;91.30;;;;;;5087860;28;20414;-80
2021/10/26 02:40:01;;;;;;;9.38;2.13;;;8.50;91.40;;;;;;5073587;28;20047;-79
2021/10/26 02:42:29;;;;;;;7.78;2.08;;;8.40;91.50;;;;;;5073321;28;20044;-80
2021/10/26 02:44:57;;;;;;;10.45;2.15;;;8.40;91.50;;;;;;5073134;28;20406;-80
2021/10/26 02:47:24;;;;;;;9.57;1.75;;;8.50;91.50;;;;;;5051452;28;20048;-80
2021/10/26 02:49:52;;;;;;;9.00;2.00;;;8.40;91.50;;;;;;5073987;28;20045;-80
2021/10/26 02:52:20;;;;;;;7.82;2.05;;;8.40;91.50;;;;;;5074301;28;20499;-80
2021/10/26 02:54:51;;;;;;;12.38;2.50;;;8.40;91.60;;;;;;5074207;28;20048;-79
2021/10/26 02:57:18;;;;;;;7.80;2.03;;;8.40;91.60;;;;;;5073412;28;20044;-79
2021/10/26 02:59:47;;;;;;;10.60;1.90;;;8.30;91.60;;;;;;5065952;28;20393;-79
2021/10/26 03:02:15;;;;;;;12.48;2.25;;;8.40;91.60;;;;;;5059542;28;20059;-80
2021/10/26 03:04:44;;;;;;;5.38;1.92;;;8.40;91.70;;;;;;5039830;28;20501;-79
2021/10/26 03:07:12;;;;;;;9.20;3.03;;;8.30;91.70;;;;;;5074642;28;20036;-83
2021/10/26 03:09:46;;;;;;;13.02;2.60;;;8.40;91.70;;;;;;5080834;28;20375;-83
2021/10/26 03:12:14;;;;;;;13.60;3.55;;;8.30;91.80;;;;;;5072790;28;20036;-84
2021/10/26 03:14:42;;;;;;;172.60;101.68;;;8.40;91.80;;;;;;5074037;28;20048;-84
2021/10/26 03:17:12;;;;;;;10.38;2.40;;;8.40;91.80;;;;;;5042440;28;20044;-84
2021/10/26 03:19:52;;;;;;;9.82;2.08;;;8.40;91.80;;;;;;5086961;28;20036;-83
2021/10/26 03:22:20;;;;;;;13.38;2.65;;;8.40;91.70;;;;;;5090800;28;20048;-84
2021/10/26 03:24:48;;;;;;;6.90;2.17;;;8.40;91.70;;;;;;5059552;28;20386;-84
2021/10/26 03:27:18;;;;;;;12.50;2.55;;;8.50;91.70;;;;;;5078145;28;20398;-84
2021/10/26 03:29:46;;;;;;;8.05;2.55;;;8.50;91.80;;;;;;5073769;28;20056;-79
2021/10/26 03:32:18;;;;;;;10.65;2.00;;;8.40;91.80;;;;;;5069718;28;20056;-79
2021/10/26 03:35:18;;;;;;;11.65;2.10;;;8.50;91.80;;;;;;5069084;28;20511;-80
2021/10/26 03:37:46;;;;;;;12.68;2.17;;;8.50;91.80;;;;;;5071544;28;20064;-80
2021/10/26 03:40:14;;;;;;;16.25;2.53;;;8.60;91.80;;;;;;5063523;28;20041;-80
2021/10/26 03:42:43;;;;;;;10.40;2.38;;;8.50;91.80;;;;;;5083594;28;20059;-80
2021/10/26 03:45:14;;;;;;;8.55;2.17;;;8.50;91.80;;;;;;5073882;28;20048;-79
2021/10/26 03:47:44;;;;;;;13.05;2.35;;;8.60;91.80;;;;;;5059670;28;20401;-80
2021/10/26 03:50:13;;;;;;;11.05;2.20;;;8.60;91.90;;;;;;5079238;28;20033;-80
2021/10/26 03:52:42;;;;;;;11.48;2.10;;;8.60;91.90;;;;;;5071971;28;20045;-79
2021/10/26 03:55:12;;;;;;;9.05;2.33;;;8.60;91.90;;;;;;5081991;28;20044;-79
2021/10/26 03:57:44;;;;;;;6.38;2.35;;;8.60;91.90;;;;;;5089480;28;20051;-80
2021/10/26 04:00:12;;;;;;;11.68;2.35;;;8.70;91.80;;;;;;5087723;28;20317;-80
2021/10/26 04:03:00;;;;;;;10.65;1.95;;;8.70;91.80;;;;;;5080026;28;20422;-79
2021/10/26 04:08:24;;;;;;;10.38;1.90;;;8.70;91.80;;;;;;5096447;28;20048;-80
2021/10/26 04:13:54;;;;;;;5.97;2.08;;;8.70;91.70;;;;;;5063655;28;20511;-80
2021/10/26 04:16:23;;;;;;;9.48;2.00;;;8.70;91.80;;;;;;5081237;28;20048;-80
2021/10/26 04:18:52;;;;;;;10.82;2.15;;;8.70;91.90;;;;;;5086930;28;20047;-80
2021/10/26 04:21:19;;;;;;;10.30;2.10;;;8.80;91.90;;;;;;5084811;28;20397;-78
2021/10/26 04:23:51;;;;;;;9.95;2.15;;;8.80;91.90;;;;;;5087144;28;20493;-80
2021/10/26 04:26:21;;;;;;;12.00;2.33;;;8.80;91.90;;;;;;5083403;28;21048;-78
2021/10/26 04:28:49;;;;;;;8.43;2.20;;;8.80;91.90;;;;;;5090475;28;20040;-77
2021/10/26 04:31:18;;;;;;;18.77;2.10;;;8.70;91.90;;;;;;5081905;28;20043;-78
2021/10/26 04:33:48;;;;;;;13.55;2.25;;;8.70;91.90;;;;;;5064185;28;20063;-78
2021/10/26 04:36:17;;;;;;;13.20;2.05;;;8.80;91.90;;;;;;5077485;28;20044;-78
2021/10/26 04:38:50;;;;;;;10.50;2.00;;;8.80;92.00;;;;;;5076941;28;20063;-78
2021/10/26 04:41:18;;;;;;;7.57;1.90;;;8.80;91.90;;;;;;5081044;28;20408;-78
2021/10/26 04:43:46;;;;;;;13.30;2.20;;;8.80;91.90;;;;;;5078042;28;20032;-78
2021/10/26 04:46:14;;;;;;;12.10;2.03;;;8.80;91.80;;;;;;5080375;28;20051;-78
2021/10/26 04:48:43;;;;;;;9.20;1.90;;;8.80;91.90;;;;;;5078956;28;20048;-78
2021/10/26 04:51:10;;;;;;;11.98;2.15;;;8.80;91.90;;;;;;5078060;28;20051;-79
2021/10/26 04:53:40;;;;;;;12.68;2.03;;;8.80;91.80;;;;;;5059455;28;20056;-79
2021/10/26 04:56:08;;;;;;;11.80;1.75;;;8.80;91.80;;;;;;5059345;28;20398;-79
2021/10/26 04:59:00;;;;;;;11.85;1.70;;;8.80;91.80;;;;;;5065192;28;20044;-79
2021/10/26 05:01:27;;;;;;;10.35;1.90;;;8.80;91.90;;;;;;5081286;28;20051;-79
2021/10/26 05:03:56;;;;;;;11.93;2.42;;;8.80;91.90;;;;;;5080104;28;20048;-78
2021/10/26 05:06:24;;;;;;;15.02;1.80;;;8.80;91.80;;;;;;5076063;28;20052;-79
2021/10/26 05:08:53;;;;;;;10.30;1.98;;;8.80;91.90;;;;;;5079037;28;20404;-78
2021/10/26 05:11:23;;;;;;;14.50;1.73;;;8.80;91.90;;;;;;5076978;28;20366;-78
2021/10/26 05:13:53;;;;;;;9.07;1.80;;;8.80;91.90;;;;;;5064150;28;20056;-78
2021/10/26 05:16:26;;;;;;;11.20;1.90;;;8.80;91.90;;;;;;5077050;28;20039;-80
2021/10/26 05:19:21;;;;;;;9.95;2.10;;;8.80;91.90;;;;;;5064299;28;20067;-78
2021/10/26 05:22:08;;;;;;;10.10;1.98;;;8.80;91.90;;;;;;5079007;28;20084;-78
2021/10/26 05:25:11;;;;;;;10.77;1.70;;;8.80;91.90;;;;;;5080470;28;20040;-78
2021/10/26 05:27:55;;;;;;;11.60;1.88;;;8.80;91.90;;;;;;5059447;28;20036;-78
2021/10/26 05:30:23;;;;;;;7.05;1.80;;;8.70;91.90;;;;;;5076921;28;20106;-78
2021/10/26 05:32:51;;;;;;;13.68;2.03;;;8.80;91.90;;;;;;5080208;28;20044;-78
2021/10/26 05:35:18;;;;;;;8.05;1.58;;;8.70;91.90;;;;;;5077543;28;20044;-79
2021/10/26 05:37:48;;;;;;;9.25;1.95;;;8.80;91.80;;;;;;5078149;28;20052;-79
2021/10/26 05:40:16;;;;;;;13.10;2.30;;;8.70;91.90;;;;;;5079048;28;20040;-79
2021/10/26 05:42:46;;;;;;;11.73;1.88;;;8.70;91.90;;;;;;5081735;28;20049;-79
2021/10/26 05:45:14;;;;;;;7.13;2.08;;;8.80;91.90;;;;;;5078157;28;20051;-79
2021/10/26 05:47:42;;;;;;;10.93;1.98;;;8.80;91.90;;;;;;5077989;28;20044;-79
2021/10/26 05:50:10;;;;;;;12.40;2.15;;;8.80;91.90;;;;;;5080243;28;20036;-79
2021/10/26 05:52:44;;;;;;;11.75;1.90;;;8.80;91.90;;;;;;5078463;28;20411;-79
2021/10/26 05:55:12;;;;;;;10.43;2.42;;;8.80;91.80;;;;;;5085586;28;20417;-79
2021/10/26 05:57:43;;;;;;;11.60;2.08;;;8.80;91.80;;;;;;5078586;28;20473;-79
2021/10/26 06:00:14;;;;;;;18.92;2.35;;;8.80;91.80;;;;;;5080471;28;20047;-79
2021/10/26 06:02:44;;;;;;;8.50;1.90;;;8.90;91.80;;;;;;5061871;28;20052;-79
2021/10/26 06:05:12;;;;;;;13.35;2.58;;;8.90;91.80;;;;;;5072489;28;20056;-79
2021/10/26 06:07:41;;;;;;;9.68;2.38;;;8.90;91.70;;;;;;5073033;28;20040;-79
2021/10/26 06:10:10;;;;;;;11.20;2.22;;;8.90;91.70;;;;;;5077810;28;20425;-79
2021/10/26 06:12:51;;;;;;;7.57;2.08;;;8.90;91.70;;;;;;5059253;28;20572;-79
2021/10/26 06:15:22;;;;;;;12.85;1.90;;;8.90;91.70;;;;;;5071679;28;20048;-79
2021/10/26 06:17:50;;;;;;;6.82;1.65;;;8.90;91.70;;;;;;5065019;28;20044;-79
2021/10/26 06:20:19;;;;;;;7.57;1.80;;;9.00;91.70;;;;;;5082883;28;20048;-79
2021/10/26 06:22:47;;;;;;;10.23;2.00;;;9.00;91.70;;;;;;5047179;28;20528;-79
2021/10/26 06:25:15;;;;;;;9.32;1.67;;;9.00;91.70;;;;;;5082648;28;20402;-79
2021/10/26 06:28:03;;;;;;;8.88;1.60;;;9.00;91.60;;;;;;5082754;28;20056;-79
2021/10/26 06:30:32;;;;;;;5.15;1.63;;;9.00;91.60;;;;;;5081185;28;20040;-79
2021/10/26 06:33:23;;;;;;;10.27;2.00;;;9.00;91.60;;;;;;5079556;28;20039;-79
2021/10/26 06:35:56;;;;;;;8.32;1.52;;;9.00;91.60;;;;;;5080168;28;20048;-79
2021/10/26 06:38:24;;;;;;;13.70;2.00;;;9.00;91.60;;;;;;5053374;28;20493;-79
2021/10/26 06:40:53;;;;;;;11.63;2.10;;;9.00;91.60;;;;;;5081527;28;20048;-78
2021/10/26 06:43:53;;;;;;;12.63;2.17;;;9.00;91.60;;;;;;5009783;28;20049;-79
2021/10/26 06:46:40;;;;;;;9.63;1.75;;;9.10;91.60;;;;;;5023642;28;20463;-78
2021/10/26 06:49:27;;;;;;;12.70;2.03;;;9.10;91.60;;;;;;5031173;28;20045;-78
2021/10/26 06:52:15;;;;;;;11.88;2.03;;;9.10;91.60;;;;;;5029734;28;20041;-78
2021/10/26 06:55:02;;;;;;;8.00;1.58;;;9.10;91.60;;;;;;5014686;28;20052;-78
2021/10/26 06:57:49;;;;;;;7.50;1.65;;;9.20;91.60;;;;;;5012989;28;20048;-78
2021/10/26 07:00:37;;;;;;;11.98;1.98;;;9.10;91.50;;;;;;5027233;28;20069;-78
2021/10/26 07:03:14;;;;;;;9.63;1.80;;;9.20;91.60;;;;;;5025819;28;20503;-78
2021/10/26 07:06:00;;;;;;;7.85;1.55;;;9.20;91.60;;;;;;5028003;28;20521;-78
2021/10/26 07:08:38;;;;;;;10.45;1.95;;;9.20;91.60;;;;;;5026385;28;20049;-78
2021/10/26 07:11:38;;;;;;;11.95;1.90;;;9.20;91.50;;;;;;5014447;28;20056;-78
2021/10/26 07:14:08;;;;;;;9.45;1.92;;;9.20;91.60;;;;;;5010018;28;20049;-79
2021/10/26 07:16:36;;;;;;;6.28;1.52;;;9.30;91.60;;;;;;5011606;28;20049;-78
2021/10/26 07:19:08;;;;;;;8.05;1.77;;;9.30;91.50;;;;;;5025938;28;20053;-78
2021/10/26 07:21:56;;;;;;;10.18;2.05;;;9.30;91.50;;;;;;5083302;28;20044;-78
2021/10/26 07:24:42;;;;;;;12.20;1.95;;;9.40;91.50;;;;;;5080191;28;20044;-79
2021/10/26 07:27:13;;;;;;;9.68;1.55;;;9.40;91.40;;;;;;5081085;28;20040;-79
2021/10/26 07:29:41;;;;;;;5.82;1.50;;;9.40;91.40;;;;;;5081402;28;20059;-78
2021/10/26 07:32:09;;;;;;;5.47;1.60;;;9.50;91.40;;;;;;5080663;28;20056;-78
2021/10/26 07:34:37;;;;;;;10.10;1.77;;;9.50;91.30;;;;;;5080560;28;20048;-78
2021/10/26 07:37:07;;;;;;;10.48;2.10;;;9.60;91.20;;;;;;5080775;28;20049;-78
2021/10/26 07:39:46;;;;;;;8.43;1.83;;;9.60;91.20;;;;;;5064617;28;20497;-79
2021/10/26 07:42:18;;;;;;;7.65;1.90;;;9.70;91.10;;;;;;5050292;28;20052;-79
2021/10/26 07:45:15;;;;;;;9.32;1.75;;;9.70;91.10;;;;;;5080101;28;20055;-79
2021/10/26 07:47:43;;;;;;;10.13;2.05;;;9.70;91.00;;;;;;5082050;28;20048;-79
2021/10/26 07:50:11;;;;;;;7.65;1.60;;;9.80;90.90;;;;;;5056409;28;20059;-80
2021/10/26 07:52:40;;;;;;;11.52;1.73;;;9.80;90.80;;;;;;5090388;28;20035;-79
2021/10/26 07:55:31;;;;;;;5.28;1.40;;;9.90;90.70;;;;;;5072658;28;20390;-78
2021/10/26 07:58:06;;;;;;;6.70;1.60;;;10.00;90.50;;;;;;5079375;28;20405;-78
2021/10/26 08:00:35;;;;;;;13.35;1.48;;;10.00;90.50;;;;;;5074263;28;20048;-79
2021/10/26 08:03:26;;;;;;;4.05;1.10;;;10.10;90.30;;;;;;5076705;28;20493;-79
2021/10/26 08:05:59;;;;;;;6.95;1.48;;;10.20;90.20;;;;;;5079964;28;20044;-79
2021/10/26 08:08:28;;;;;;;9.32;1.15;;;10.30;90.00;;;;;;5069469;28;20063;-79
2021/10/26 08:10:59;;;;;;;6.95;1.60;;;10.30;89.90;;;;;;5092493;28;20500;-78
2021/10/26 08:13:27;;;;;;;11.65;1.42;;;10.40;89.80;;;;;;5071251;28;20049;-79
2021/10/26 08:15:55;;;;;;;6.82;1.23;;;10.50;89.70;;;;;;5084280;28;20051;-79
2021/10/26 08:18:23;;;;;;;7.25;1.30;;;10.50;89.60;;;;;;5077012;28;20044;-79
2021/10/26 08:20:50;;;;;;;12.65;1.23;;;10.60;89.60;;;;;;5091398;28;20051;-79
2021/10/26 08:23:23;;;;;;;8.57;1.05;;;10.60;89.50;;;;;;5077089;28;20044;-79
2021/10/26 08:26:01;;;;;;;6.70;1.00;;;10.70;89.40;;;;;;5091704;28;20047;-79
2021/10/26 08:28:32;;;;;;;7.35;1.40;;;10.70;89.10;;;;;;5075898;28;20417;-79
2021/10/26 08:31:07;;;;;;;7.82;1.02;;;10.70;88.90;;;;;;5067613;28;20063;-79
2021/10/26 08:34:04;;;;;;;7.47;1.10;;;10.70;88.80;;;;;;5080346;28;20040;-79
2021/10/26 08:36:34;;;;;;;9.60;1.33;;;10.80;88.80;;;;;;5070844;28;20059;-78
2021/10/26 08:39:06;;;;;;;3.70;1.10;;;10.80;88.80;;;;;;5063031;28;20055;-79
2021/10/26 08:41:36;;;;;;;8.10;1.20;;;10.90;88.70;;;;;;5074655;28;20228;-79
2021/10/26 08:44:04;;;;;;;5.25;0.98;;;11.00;88.60;;;;;;5084509;28;20036;-79
2021/10/26 08:46:34;;;;;;;5.95;1.20;;;11.10;88.60;;;;;;5072834;28;20048;-79
2021/10/26 08:49:02;;;;;;;5.20;1.20;;;11.20;88.40;;;;;;5081388;28;20048;-79
2021/10/26 08:51:52;;;;;;;8.80;1.02;;;11.20;88.40;;;;;;5075658;28;20400;-79
2021/10/26 08:54:23;;;;;;;4.28;1.25;;;11.20;88.10;;;;;;5087609;28;20048;-79
2021/10/26 08:57:17;;;;;;;7.30;1.83;;;11.30;88.00;;;;;;5090397;28;20056;-79
2021/10/26 08:59:49;;;;;;;6.25;1.35;;;11.30;87.90;;;;;;5086849;28;20044;-79
2021/10/26 09:02:17;;;;;;;6.88;1.60;;;11.40;87.90;;;;;;5075821;28;20051;-79
2021/10/26 09:04:45;;;;;;;6.95;1.88;;;11.50;87.80;;;;;;5080084;28;20480;-79
2021/10/26 09:07:19;;;;;;;7.82;1.80;;;11.50;87.50;;;;;;5079247;28;20049;-79
2021/10/26 09:09:48;;;;;;;7.35;1.67;;;11.50;87.50;;;;;;5097844;28;20051;-79
2021/10/26 09:18:12;;;;;;;8.80;1.85;;;11.60;87.30;;;;;;5089098;28;20063;-79
2021/10/26 09:21:22;;;;;;;5.15;1.35;;;11.50;87.30;;;;;;5071470;28;20049;-79
2021/10/26 09:23:51;;;;;;;5.07;2.25;;;11.50;87.40;;;;;;5087635;28;20488;-79
2021/10/26 09:26:42;;;;;;;6.30;1.63;;;11.60;87.50;;;;;;5079637;28;20040;-79
2021/10/26 09:29:12;;;;;;;6.63;1.90;;;11.60;87.60;;;;;;5083346;28;20045;-80
2021/10/26 09:31:42;;;;;;;9.55;1.85;;;11.60;87.70;;;;;;5079362;28;20055;-79
2021/10/26 09:34:15;;;;;;;6.57;1.70;;;11.70;87.70;;;;;;5083225;28;20218;-80
2021/10/26 09:36:48;;;;;;;;;;;11.80;87.70;;;;;;5084891;28;20048;-81
2021/10/26 09:39:22;;;;;;;7.57;1.92;;;11.80;87.80;;;;;;5075545;28;19931;-80
2021/10/26 09:41:50;;;;;;;8.82;2.60;;;11.80;87.70;;;;;;5078719;28;20052;-80
2021/10/26 09:44:20;;;;;;;5.88;1.85;;;11.90;87.70;;;;;;5079404;28;20417;-80
2021/10/26 09:47:00;;;;;;;5.95;2.13;;;11.90;87.70;;;;;;5080855;28;20051;-80
2021/10/26 09:49:34;;;;;;;9.52;1.70;;;11.90;87.60;;;;;;5044290;28;20060;-81
2021/10/26 09:52:30;;;;;;;4.22;1.40;;;11.90;87.70;;;;;;5078540;28;20047;-80
2021/10/26 09:55:13;;;;;;;5.35;1.70;;;12.00;87.70;;;;;;5099155;28;20520;-80
2021/10/26 09:57:48;;;;;;;4.33;1.40;;;12.00;87.60;;;;;;5063806;28;20048;-80
2021/10/26 10:00:29;;;;;;;4.22;1.33;;;12.10;87.60;;;;;;5070322;28;20055;-81
2021/10/26 10:03:04;;;;;;;4.53;1.40;;;12.10;87.60;;;;;;5071923;28;20055;-80
2021/10/26 10:05:36;;;;;;;4.68;1.30;;;12.20;87.60;;;;;;5082909;28;20324;-80
2021/10/26 10:08:20;;;;;;;12.18;1.27;;;12.20;87.50;;;;;;5077617;28;20048;-81
2021/10/26 10:11:13;;;;;;;2.33;1.00;;;12.30;87.60;;;;;;5087221;28;20044;-81
2021/10/26 10:13:56;;;;;;;5.60;1.25;;;12.30;87.50;;;;;;5062732;28;20053;-80
2021/10/26 10:16:25;;;;;;;4.18;0.95;;;12.30;87.40;;;;;;5085051;28;20508;-79
2021/10/26 10:18:55;;;;;;;4.43;1.27;;;12.30;87.20;;;;;;5091504;28;20039;-80
2021/10/26 10:21:29;;;;;;;6.75;1.35;;;12.30;87.30;;;;;;5074562;28;20052;-80
2021/10/26 10:24:00;;;;;;;4.32;1.50;;;12.30;87.40;;;;;;5082877;28;20044;-80
2021/10/26 10:26:30;;;;;;;5.97;1.27;;;12.40;87.40;;;;;;5080646;28;20047;-80
2021/10/26 10:29:01;;;;;;;2.72;1.27;;;12.40;87.50;;;;;;5073319;28;20397;-81
2021/10/26 10:31:29;;;;;;;5.32;1.48;;;12.50;87.50;;;;;;5080081;28;20040;-80
2021/10/26 10:33:58;;;;;;;5.50;1.95;;;12.50;87.50;;;;;;5080967;28;20059;-80
2021/10/26 10:36:32;;;;;;;5.53;1.65;;;12.50;87.50;;;;;;5084306;28;20051;-80
2021/10/26 10:39:05;;;;;;;4.50;1.52;;;12.50;87.50;;;;;;5090251;28;20051;-80
2021/10/26 10:41:36;;;;;;;3.00;1.50;;;12.50;87.50;;;;;;5089070;28;20043;-81
2021/10/26 10:44:21;;;;;;;5.10;1.63;;;12.60;87.50;;;;;;5071153;28;20055;-81
2021/10/26 10:46:52;;;;;;;6.40;1.75;;;12.60;87.50;;;;;;5084135;28;20051;-80
2021/10/26 10:49:34;;;;;;;4.70;1.60;;;12.60;87.50;;;;;;5081541;28;20045;-80
2021/10/26 10:52:05;;;;;;;5.03;1.65;;;12.70;87.40;;;;;;5070225;28;20045;-81
2021/10/26 10:54:36;;;;;;;5.30;1.85;;;12.70;87.40;;;;;;5064791;28;20056;-83
2021/10/26 10:57:33;;;;;;;4.20;1.60;;;12.70;87.50;;;;;;5089429;28;20051;-79
2021/10/26 11:00:23;;;;;;;5.07;1.67;;;12.80;87.50;;;;;;5079278;28;20040;-81
2021/10/26 11:02:55;;;;;;;6.68;1.60;;;12.80;87.40;;;;;;5083433;28;20041;-81
2021/10/26 11:05:38;;;;;;;7.15;1.65;;;12.80;87.50;;;;;;5085454;28;20044;-82
2021/10/26 11:08:08;;;;;;;5.57;1.70;;;13.00;87.50;;;;;;5074787;28;20059;-80
2021/10/26 11:10:51;;;;;;;9.90;1.70;;;13.20;87.30;;;;;;5090651;28;20060;-80
2021/10/26 11:13:23;;;;;;;5.55;1.95;;;13.30;87.10;;;;;;5076771;28;20041;-80
2021/10/26 11:15:53;;;;;;;5.53;1.73;;;13.50;86.50;;;;;;5082719;28;20058;-82
2021/10/26 11:18:35;;;;;;;10.05;1.70;;;13.70;86.40;;;;;;5100099;28;20375;-82
2021/10/26 11:21:06;;;;;;;6.93;2.00;;;13.80;86.00;;;;;;5099627;28;20067;-81
2021/10/26 11:23:39;;;;;;;6.72;1.75;;;13.90;85.40;;;;;;5096152;28;20044;-82
2021/10/26 11:26:13;;;;;;;4.47;1.50;;;14.10;85.40;;;;;;5064566;28;20176;-82
2021/10/26 11:28:47;;;;;;;6.13;1.63;;;14.40;85.20;;;;;;5080344;28;20055;-80
2021/10/26 11:31:23;;;;;;;5.95;1.10;;;14.80;84.20;;;;;;5067249;28;20040;-82
2021/10/26 11:33:59;;;;;;;5.28;1.42;;;15.10;83.20;;;;;;5067513;28;20040;-79
2021/10/26 11:36:33;;;;;;;5.70;1.55;;;15.40;82.80;;;;;;5094022;28;20048;-80
2021/10/26 11:39:11;;;;;;;4.38;1.30;;;15.80;82.10;;;;;;5074315;28;20041;-81
2021/10/26 11:41:42;;;;;;;4.40;1.10;;;16.30;81.20;;;;;;5069264;28;20056;-79
2021/10/26 11:44:16;;;;;;;8.80;1.42;;;16.40;79.50;;;;;;5078164;28;20068;-80
2021/10/26 11:46:47;;;;;;;3.88;1.70;;;16.30;79.10;;;;;;5076889;28;20405;-80
2021/10/26 11:49:23;;;;;;;6.75;1.83;;;16.10;79.40;;;;;;5080613;28;20481;-81
2021/10/26 11:52:03;;;;;;;3.33;1.83;;;15.80;79.40;;;;;;5080468;28;20421;-81
2021/10/26 11:54:36;;;;;;;4.97;2.03;;;15.60;80.20;;;;;;5067386;28;20053;-81
2021/10/26 11:57:09;;;;;;;6.95;2.05;;;15.40;80.60;;;;;;5083979;28;20043;-80
2021/10/26 11:59:47;;;;;;;4.80;1.48;;;15.30;81.20;;;;;;5067761;28;20409;-81
2021/10/26 12:02:19;;;;;;;7.50;1.40;;;15.20;81.90;;;;;;5079276;28;20040;-79
2021/10/26 12:05:04;;;;;;;4.68;1.30;;;15.20;82.50;;;;;;5080155;28;20397;-79
2021/10/26 12:07:32;;;;;;;5.53;1.20;;;15.30;82.90;;;;;;5081348;28;20527;-79
2021/10/26 12:10:05;;;;;;;4.00;1.02;;;15.30;82.70;;;;;;5077605;28;20055;-79
2021/10/26 12:12:34;;;;;;;5.55;1.10;;;15.40;82.70;;;;;;5063104;28;20037;-79
2021/10/26 12:15:10;;;;;;;5.18;0.95;;;15.50;82.80;;;;;;5064222;28;20044;-79
2021/10/26 12:17:39;;;;;;;3.25;1.13;;;15.60;82.20;;;;;;5082597;28;20190;-79
2021/10/26 12:20:17;;;;;;;6.00;1.20;;;15.70;82.10;;;;;;5081405;28;20489;-79
2021/10/26 12:22:58;;;;;;;2.35;0.80;;;15.70;82.20;;;;;;5081550;28;20044;-80
2021/10/26 12:25:30;;;;;;;3.33;1.17;;;15.60;81.90;;;;;;5082187;28;20041;-80
2021/10/26 12:28:04;;;;;;;3.50;0.85;;;15.60;82.00;;;;;;5051267;28;20055;-80
2021/10/26 12:30:35;;;;;;;2.95;1.02;;;15.60;82.40;;;;;;5080702;28;20051;-80
2021/10/26 12:33:06;;;;;;;4.97;1.17;;;15.50;82.40;;;;;;5081214;28;20044;-80
2021/10/26 12:35:45;;;;;;;2.42;0.93;;;15.50;82.10;;;;;;5083007;28;20049;-80
2021/10/26 12:38:43;;;;;;;5.75;1.30;;;15.60;82.20;;;;;;5066136;28;20059;-80
2021/10/26 12:41:20;;;;;;;5.47;1.00;;;15.50;82.10;;;;;;5082725;28;20482;-80
2021/10/26 12:44:12;;;;;;;3.67;0.90;;;15.50;82.30;;;;;;5077550;28;20089;-80
2021/10/26 12:46:40;;;;;;;5.38;1.08;;;15.60;82.30;;;;;;5084623;28;20048;-80
2021/10/26 12:49:14;;;;;;;2.05;0.68;;;15.60;82.30;;;;;;5090446;28;20067;-80
2021/10/26 12:51:42;;;;;;;;;;;;;;;;;;5082885;28;20055;-79
2021/10/26 12:54:19;;;;;;;7.78;1.30;;;15.60;81.70;;;;;;5082906;28;19965;-80
2021/10/26 12:56:54;;;;;;;3.33;1.00;;;15.60;81.90;;;;;;5082259;28;20053;-77
2021/10/26 12:59:28;;;;;;;4.80;0.82;;;15.60;81.90;;;;;;5082628;28;20078;-79
2021/10/26 13:02:04;;;;;;;5.57;1.27;;;15.70;82.00;;;;;;5074963;28;20036;-79
2021/10/26 13:04:33;;;;;;;4.40;1.23;;;15.60;81.90;;;;;;5071983;28;20044;-78
2021/10/26 13:07:05;;;;;;;5.85;1.00;;;15.70;81.80;;;;;;5072301;28;20047;-79
2021/10/26 13:09:37;;;;;;;4.40;0.90;;;15.70;81.70;;;;;;5072978;28;20062;-80
2021/10/26 13:12:21;;;;;;;5.22;1.20;;;15.70;81.80;;;;;;5063488;28;20405;-79
2021/10/26 13:15:01;;;;;;;5.13;1.13;;;15.80;81.60;;;;;;5077279;28;20044;-80
2021/10/26 13:17:36;;;;;;;5.55;1.17;;;15.80;81.20;;;;;;5079885;28;20049;-80
2021/10/26 13:20:19;;;;;;;3.13;1.27;;;15.80;80.80;;;;;;5076632;28;20056;-80
2021/10/26 13:22:57;;;;;;;4.95;1.30;;;15.90;80.80;;;;;;5079654;28;20048;-79
2021/10/26 13:25:28;;;;;;;2.58;0.70;;;15.90;80.20;;;;;;5078114;28;20403;-79
2021/10/26 13:28:00;;;;;;;6.45;1.35;;;16.00;80.10;;;;;;5080711;28;20413;-80
2021/10/26 13:30:28;;;;;;;5.82;1.30;;;16.00;80.00;;;;;;5079776;28;20490;-80
2021/10/26 13:32:57;;;;;;;7.10;1.13;;;16.10;79.20;;;;;;5080946;28;20044;-79
2021/10/26 13:35:27;;;;;;;3.38;1.00;;;16.10;79.40;;;;;;5084687;28;20072;-79